createdAt,value
2019-06-10T00:00:50.981Z,1013.53
2019-06-10T00:01:51.408Z,1013.50
2019-06-10T00:02:50.949Z,1013.45
2019-06-10T00:03:51.802Z,1013.46
2019-06-10T00:04:50.934Z,1013.43
2019-06-10T00:05:51.768Z,1013.42
2019-06-10T00:06:51.070Z,1013.41
2019-06-10T00:07:51.593Z,1013.39
2019-06-10T00:08:50.907Z,1013.40
2019-06-10T00:09:51.225Z,1013.38
2019-06-10T00:10:51.217Z,1013.42
2019-06-10T00:11:51.466Z,1013.41
2019-06-10T00:12:51.432Z,1013.36
2019-06-10T00:13:50.893Z,1013.38
2019-06-10T00:14:51.060Z,1013.36
2019-06-10T00:15:51.501Z,1013.36
2019-06-10T00:16:51.064Z,1013.38
2019-06-10T00:18:01.355Z,1013.39
2019-06-10T00:18:51.791Z,1013.39
2019-06-10T00:19:51.232Z,1013.45
2019-06-10T00:20:51.290Z,1013.44
2019-06-10T00:21:51.044Z,1013.47
2019-06-10T00:22:51.515Z,1013.51
2019-06-10T00:23:51.838Z,1013.50
2019-06-10T00:24:52.210Z,1013.47
2019-06-10T00:25:51.549Z,1013.48
2019-06-10T00:26:51.220Z,1013.49
2019-06-10T00:27:51.168Z,1013.46
2019-06-10T00:28:51.304Z,1013.57
2019-06-10T00:29:51.268Z,1013.55
2019-06-10T00:30:51.582Z,1013.54
2019-06-10T00:31:50.935Z,1013.53
2019-06-10T00:32:51.566Z,1013.53
2019-06-10T00:33:51.962Z,1013.57
2019-06-10T00:34:50.893Z,1013.56
2019-06-10T00:35:51.507Z,1013.52
2019-06-10T00:36:51.049Z,1013.53
2019-06-10T00:37:51.241Z,1013.51
2019-06-10T00:38:51.708Z,1013.53
2019-06-10T00:39:51.247Z,1013.49
2019-06-10T00:40:51.371Z,1013.49
2019-06-10T00:41:52.112Z,1013.45
2019-06-10T00:42:50.807Z,1013.44
2019-06-10T00:43:51.662Z,1013.43
2019-06-10T00:44:50.883Z,1013.39
2019-06-10T00:45:51.347Z,1013.42
2019-06-10T00:46:51.599Z,1013.42
2019-06-10T00:47:52.051Z,1013.38
2019-06-10T00:48:51.431Z,1013.36
2019-06-10T00:49:51.493Z,1013.32
2019-06-10T00:50:51.836Z,1013.28
2019-06-10T00:51:50.985Z,1013.28
2019-06-10T00:52:51.640Z,1013.23
2019-06-10T00:53:51.410Z,1013.25
2019-06-10T00:54:51.887Z,1013.24
2019-06-10T00:55:51.579Z,1013.21
2019-06-10T00:56:51.791Z,1013.22
2019-06-10T00:57:50.951Z,1013.19
2019-06-10T00:58:51.375Z,1013.18
2019-06-10T00:59:50.858Z,1013.11
2019-06-10T01:00:51.656Z,1013.12
2019-06-10T01:01:50.861Z,1013.08
2019-06-10T01:02:51.784Z,1012.96
2019-06-10T01:03:50.926Z,1013.01
2019-06-10T01:04:51.403Z,1013.00
2019-06-10T01:05:50.846Z,1012.97
2019-06-10T01:06:51.414Z,1012.97
2019-06-10T01:07:50.796Z,1012.96
2019-06-10T01:08:51.214Z,1012.97
2019-06-10T01:09:57.978Z,1012.97
2019-06-10T01:10:52.241Z,1012.98
2019-06-10T01:11:51.954Z,1012.95
2019-06-10T01:12:51.312Z,1012.93
2019-06-10T01:13:50.822Z,1012.91
2019-06-10T01:14:51.715Z,1012.88
2019-06-10T01:15:51.155Z,1012.84
2019-06-10T01:16:50.612Z,1012.77
2019-06-10T01:17:51.126Z,1012.76
2019-06-10T01:18:53.232Z,1012.70
2019-06-10T01:19:50.888Z,1012.66
2019-06-10T01:20:51.691Z,1012.65
2019-06-10T01:21:51.149Z,1012.65
2019-06-10T01:22:51.611Z,1012.62
2019-06-10T01:23:51.023Z,1012.70
2019-06-10T01:24:51.085Z,1012.70
2019-06-10T01:25:51.060Z,1012.69
2019-06-10T01:26:50.559Z,1012.60
2019-06-10T01:27:51.510Z,1012.64
2019-06-10T01:28:51.675Z,1012.62
2019-06-10T01:29:51.093Z,1012.61
2019-06-10T01:30:51.687Z,1012.61
2019-06-10T01:31:51.240Z,1012.63
2019-06-10T01:32:50.619Z,1012.61
2019-06-10T01:33:51.307Z,1012.61
2019-06-10T01:34:50.825Z,1012.62
2019-06-10T01:35:51.436Z,1012.62
2019-06-10T01:36:50.950Z,1012.66
2019-06-10T01:37:51.854Z,1012.68
2019-06-10T01:38:51.126Z,1012.64
2019-06-10T01:39:51.507Z,1012.67
2019-06-10T01:40:50.923Z,1012.62
2019-06-10T01:41:51.195Z,1012.59
2019-06-10T01:42:50.629Z,1012.54
2019-06-10T01:43:51.331Z,1012.49
2019-06-10T01:44:50.696Z,1012.46
2019-06-10T01:45:51.156Z,1012.42
2019-06-10T01:46:51.606Z,1012.40
2019-06-10T01:47:51.132Z,1012.38
2019-06-10T01:48:52.078Z,1012.41
2019-06-10T01:49:51.671Z,1012.39
2019-06-10T01:50:51.329Z,1012.40
2019-06-10T01:51:51.608Z,1012.38
2019-06-10T01:52:51.558Z,1012.37
2019-06-10T01:53:51.285Z,1012.42
2019-06-10T01:54:51.554Z,1012.41
2019-06-10T01:55:51.826Z,1012.39
2019-06-10T01:56:51.027Z,1012.37
2019-06-10T01:57:51.785Z,1012.40
2019-06-10T01:58:51.395Z,1012.42
2019-06-10T01:59:50.927Z,1012.39
2019-06-10T02:00:50.735Z,1012.38
2019-06-10T02:01:51.638Z,1012.36
2019-06-10T02:02:52.374Z,1012.37
2019-06-10T02:03:51.734Z,1012.38
2019-06-10T02:04:51.727Z,1012.41
2019-06-10T02:05:51.649Z,1012.35
2019-06-10T02:06:51.127Z,1012.34
2019-06-10T02:07:51.529Z,1012.33
2019-06-10T02:08:51.007Z,1012.30
2019-06-10T02:09:51.606Z,1012.28
2019-06-10T02:10:50.970Z,1012.25
2019-06-10T02:11:51.366Z,1012.23
2019-06-10T02:12:50.875Z,1012.19
2019-06-10T02:13:51.423Z,1012.06
2019-06-10T02:14:50.912Z,1012.05
2019-06-10T02:15:51.372Z,1011.94
2019-06-10T02:16:50.673Z,1011.85
2019-06-10T02:17:50.984Z,1011.79
2019-06-10T02:19:00.242Z,1011.69
2019-06-10T02:19:50.920Z,1011.64
2019-06-10T02:20:51.351Z,1011.62
2019-06-10T02:21:51.048Z,1011.62
2019-06-10T02:22:51.421Z,1011.56
2019-06-10T02:23:51.594Z,1011.56
2019-06-10T02:24:50.643Z,1011.49
2019-06-10T02:25:51.266Z,1011.48
2019-06-10T02:26:51.495Z,1011.53
2019-06-10T02:27:50.776Z,1011.51
2019-06-10T02:28:51.252Z,1011.54
2019-06-10T02:29:50.720Z,1011.55
2019-06-10T02:30:51.914Z,1011.58
2019-06-10T02:31:52.221Z,1011.52
2019-06-10T02:32:52.149Z,1011.47
2019-06-10T02:33:52.386Z,1011.43
2019-06-10T02:35:03.547Z,1011.37
2019-06-10T02:35:53.567Z,1011.38
2019-06-10T02:36:49.244Z,1011.34
2019-06-10T02:37:49.232Z,1011.36
2019-06-10T02:38:49.226Z,1011.38
2019-06-10T02:39:49.214Z,1011.45
2019-06-10T02:40:49.232Z,1011.50
2019-06-10T02:41:49.194Z,1011.59
2019-06-10T02:42:49.174Z,1011.66
2019-06-10T02:43:49.163Z,1011.72
2019-06-10T02:44:49.159Z,1011.87
2019-06-10T02:45:49.148Z,1011.91
2019-06-10T02:46:49.153Z,1011.92
2019-06-10T02:47:49.120Z,1011.85
2019-06-10T02:48:49.125Z,1011.76
2019-06-10T02:49:59.029Z,1011.73
2019-06-10T02:50:53.478Z,1011.69
2019-06-10T02:51:49.102Z,1011.64
2019-06-10T02:52:49.074Z,1011.52
2019-06-10T02:53:49.057Z,1011.44
2019-06-10T02:54:49.050Z,1011.35
2019-06-10T02:55:49.036Z,1011.27
2019-06-10T02:56:49.022Z,1011.27
2019-06-10T02:57:49.029Z,1011.15
2019-06-10T02:58:49.000Z,1011.13
2019-06-10T02:59:48.991Z,1011.05
2019-06-10T03:00:49.453Z,1011.03
2019-06-10T03:01:48.969Z,1011.03
2019-06-10T03:02:48.965Z,1010.95
2019-06-10T03:03:49.797Z,1010.90
2019-06-10T03:04:48.942Z,1010.95
2019-06-10T03:05:48.983Z,1010.99
2019-06-10T03:06:48.912Z,1011.05
2019-06-10T03:07:48.921Z,1011.08
2019-06-10T03:08:48.893Z,1011.10
2019-06-10T03:09:48.878Z,1011.15
2019-06-10T03:10:48.871Z,1011.16
2019-06-10T03:11:48.859Z,1011.13
2019-06-10T03:12:48.853Z,1011.10
2019-06-10T03:13:48.837Z,1011.09
2019-06-10T03:14:48.827Z,1011.07
2019-06-10T03:15:48.815Z,1011.09
2019-06-10T03:16:48.799Z,1011.08
2019-06-10T03:17:48.812Z,1011.12
2019-06-10T03:18:48.784Z,1011.08
2019-06-10T03:19:50.774Z,1011.05
2019-06-10T03:20:48.759Z,1011.10
2019-06-10T03:21:48.748Z,1011.02
2019-06-10T03:22:48.734Z,1011.05
2019-06-10T03:23:48.733Z,1011.03
2019-06-10T03:24:48.711Z,1010.96
2019-06-10T03:25:48.702Z,1010.96
2019-06-10T03:26:48.695Z,1010.99
2019-06-10T03:27:48.676Z,1011.01
2019-06-10T03:28:48.701Z,1011.04
2019-06-10T03:29:48.659Z,1011.01
2019-06-10T03:30:53.928Z,1011.03
2019-06-10T03:31:49.702Z,1011.10
2019-06-10T03:32:48.631Z,1011.10
2019-06-10T03:33:48.613Z,1011.09
2019-06-10T03:34:48.617Z,1011.12
2019-06-10T03:35:48.608Z,1011.10
2019-06-10T03:36:48.579Z,1011.14
2019-06-10T03:37:48.570Z,1011.16
2019-06-10T03:38:48.581Z,1011.17
2019-06-10T03:39:48.548Z,1011.20
2019-06-10T03:40:48.660Z,1011.21
2019-06-10T03:41:48.530Z,1011.24
2019-06-10T03:42:48.514Z,1011.31
2019-06-10T03:43:48.506Z,1011.33
2019-06-10T03:44:48.498Z,1011.30
2019-06-10T03:45:48.483Z,1011.31
2019-06-10T03:46:48.484Z,1011.33
2019-06-10T03:47:48.455Z,1011.36
2019-06-10T03:48:48.448Z,1011.29
2019-06-10T03:49:52.522Z,1011.29
2019-06-10T03:50:49.428Z,1011.29
2019-06-10T03:51:48.450Z,1011.35
2019-06-10T03:52:48.403Z,1011.36
2019-06-10T03:53:48.390Z,1011.42
2019-06-10T03:54:48.380Z,1011.44
2019-06-10T03:55:48.366Z,1011.40
2019-06-10T03:56:48.355Z,1011.34
2019-06-10T03:57:48.356Z,1011.31
2019-06-10T03:58:48.338Z,1011.28
2019-06-10T03:59:48.327Z,1011.32
2019-06-10T04:00:48.315Z,1011.27
2019-06-10T04:01:48.298Z,1011.19
2019-06-10T04:02:48.307Z,1011.17
2019-06-10T04:03:48.277Z,1011.17
2019-06-10T04:04:48.263Z,1011.14
2019-06-10T04:05:48.264Z,1011.11
2019-06-10T04:06:48.246Z,1011.12
2019-06-10T04:07:48.231Z,1011.13
2019-06-10T04:08:48.235Z,1011.10
2019-06-10T04:09:48.210Z,1011.08
2019-06-10T04:10:48.199Z,1011.06
2019-06-10T04:11:48.192Z,1011.05
2019-06-10T04:12:48.177Z,1011.06
2019-06-10T04:13:48.165Z,1011.09
2019-06-10T04:14:48.167Z,1011.05
2019-06-10T04:15:48.143Z,1011.07
2019-06-10T04:16:48.136Z,1011.09
2019-06-10T04:17:48.121Z,1011.10
2019-06-10T04:18:48.126Z,1011.04
2019-06-10T04:19:48.095Z,1011.07
2019-06-10T04:20:48.095Z,1011.08
2019-06-10T04:21:48.083Z,1011.01
2019-06-10T04:22:48.066Z,1011.02
2019-06-10T04:23:48.066Z,1010.88
2019-06-10T04:24:48.044Z,1010.86
2019-06-10T04:25:48.036Z,1010.82
2019-06-10T04:26:48.023Z,1010.85
2019-06-10T04:27:48.007Z,1010.84
2019-06-10T04:28:48.052Z,1010.90
2019-06-10T04:29:47.994Z,1010.89
2019-06-10T04:30:47.976Z,1010.89
2019-06-10T04:31:47.968Z,1010.91
2019-06-10T04:32:47.962Z,1010.96
2019-06-10T04:33:47.939Z,1010.93
2019-06-10T04:34:47.946Z,1010.87
2019-06-10T04:35:47.926Z,1010.84
2019-06-10T04:36:47.911Z,1010.88
2019-06-10T04:37:47.895Z,1010.84
2019-06-10T04:38:47.889Z,1010.83
2019-06-10T04:39:47.898Z,1010.83
2019-06-10T04:40:47.862Z,1010.74
2019-06-10T04:41:47.851Z,1010.78
2019-06-10T04:42:47.844Z,1010.68
2019-06-10T04:43:47.836Z,1010.64
2019-06-10T04:44:47.826Z,1010.54
2019-06-10T04:45:47.818Z,1010.48
2019-06-10T04:46:47.813Z,1010.48
2019-06-10T04:47:47.787Z,1010.47
2019-06-10T04:48:47.773Z,1010.38
2019-06-10T04:49:47.763Z,1010.35
2019-06-10T04:50:47.751Z,1010.30
2019-06-10T04:51:47.752Z,1010.27
2019-06-10T04:52:47.733Z,1010.28
2019-06-10T04:53:47.723Z,1010.26
2019-06-10T04:54:47.706Z,1010.30
2019-06-10T04:55:47.699Z,1010.32
2019-06-10T04:56:47.684Z,1010.32
2019-06-10T04:57:47.681Z,1010.29
2019-06-10T04:58:47.659Z,1010.35
2019-06-10T04:59:47.649Z,1010.46
2019-06-10T05:00:47.636Z,1010.51
2019-06-10T05:01:47.632Z,1010.51
2019-06-10T05:02:47.627Z,1010.48
2019-06-10T05:03:47.622Z,1010.51
2019-06-10T05:04:47.610Z,1010.56
2019-06-10T05:05:47.587Z,1010.59
2019-06-10T05:06:47.582Z,1010.66
2019-06-10T05:07:47.563Z,1010.74
2019-06-10T05:08:47.551Z,1010.73
2019-06-10T05:09:47.544Z,1010.83
2019-06-10T05:10:47.527Z,1010.90
2019-06-10T05:11:47.559Z,1010.80
2019-06-10T05:12:47.503Z,1010.77
2019-06-10T05:13:47.492Z,1010.75
2019-06-10T05:14:47.483Z,1010.73
2019-06-10T05:15:47.476Z,1010.75
2019-06-10T05:16:47.461Z,1010.75
2019-06-10T05:17:47.459Z,1010.72
2019-06-10T05:18:47.444Z,1010.62
2019-06-10T05:19:47.432Z,1010.60
2019-06-10T05:20:57.748Z,1010.57
2019-06-10T05:21:48.410Z,1010.63
2019-06-10T05:22:47.401Z,1010.63
2019-06-10T05:23:47.385Z,1010.68
2019-06-10T05:24:47.371Z,1010.65
2019-06-10T05:25:47.363Z,1010.67
2019-06-10T05:26:47.347Z,1010.63
2019-06-10T05:27:47.379Z,1010.62
2019-06-10T05:28:47.329Z,1010.67
2019-06-10T05:29:47.312Z,1010.62
2019-06-10T05:30:47.305Z,1010.57
2019-06-10T05:31:47.292Z,1010.54
2019-06-10T05:32:47.279Z,1010.51
2019-06-10T05:33:47.280Z,1010.50
2019-06-10T05:34:47.261Z,1010.53
2019-06-10T05:35:47.267Z,1010.56
2019-06-10T05:36:47.243Z,1010.57
2019-06-10T05:37:47.224Z,1010.56
2019-06-10T05:38:47.217Z,1010.61
2019-06-10T05:39:47.209Z,1010.62
2019-06-10T05:40:47.219Z,1010.61
2019-06-10T05:41:50.122Z,1010.57
2019-06-10T05:42:47.168Z,1010.57
2019-06-10T05:43:47.158Z,1010.51
2019-06-10T05:44:47.147Z,1010.51
2019-06-10T05:45:47.136Z,1010.43
2019-06-10T05:46:47.138Z,1010.41
2019-06-10T05:47:47.115Z,1010.38
2019-06-10T05:48:47.115Z,1010.37
2019-06-10T05:49:47.096Z,1010.39
2019-06-10T05:50:59.269Z,1010.40
2019-06-10T05:51:48.086Z,1010.42
2019-06-10T05:52:47.056Z,1010.35
2019-06-10T05:53:47.046Z,1010.31
2019-06-10T05:54:47.035Z,1010.34
2019-06-10T05:55:47.025Z,1010.35
2019-06-10T05:56:47.024Z,1010.41
2019-06-10T05:57:47.016Z,1010.45
2019-06-10T05:58:46.996Z,1010.53
2019-06-10T05:59:46.980Z,1010.61
2019-06-10T06:00:46.967Z,1010.70
2019-06-10T06:01:46.967Z,1010.64
2019-06-10T06:02:46.967Z,1010.62
2019-06-10T06:03:46.951Z,1010.49
2019-06-10T06:04:46.928Z,1010.47
2019-06-10T06:05:46.924Z,1010.48
2019-06-10T06:06:46.903Z,1010.44
2019-06-10T06:08:01.354Z,1010.37
2019-06-10T06:08:47.884Z,1010.39
2019-06-10T06:09:46.876Z,1010.38
2019-06-10T06:10:46.864Z,1010.38
2019-06-10T06:11:46.854Z,1010.35
2019-06-10T06:12:46.835Z,1010.33
2019-06-10T06:13:46.873Z,1010.37
2019-06-10T06:14:46.821Z,1010.31
2019-06-10T06:15:46.809Z,1010.30
2019-06-10T06:16:46.804Z,1010.28
2019-06-10T06:17:46.780Z,1010.29
2019-06-10T06:18:46.781Z,1010.31
2019-06-10T06:19:46.785Z,1010.35
2019-06-10T06:20:46.753Z,1010.36
2019-06-10T06:21:47.918Z,1010.34
2019-06-10T06:22:46.727Z,1010.35
2019-06-10T06:23:46.715Z,1010.33
2019-06-10T06:24:46.709Z,1010.32
2019-06-10T06:25:47.159Z,1010.33
2019-06-10T06:26:46.694Z,1010.41
2019-06-10T06:27:46.670Z,1010.40
2019-06-10T06:28:46.664Z,1010.49
2019-06-10T06:29:46.651Z,1010.35
2019-06-10T06:30:46.651Z,1010.37
2019-06-10T06:31:46.642Z,1010.37
2019-06-10T06:32:46.616Z,1010.37
2019-06-10T06:33:46.619Z,1010.38
2019-06-10T06:34:46.593Z,1010.37
2019-06-10T06:35:46.860Z,1010.41
2019-06-10T06:36:46.583Z,1010.40
2019-06-10T06:37:46.567Z,1010.38
2019-06-10T06:38:46.552Z,1010.43
2019-06-10T06:39:46.547Z,1010.42
2019-06-10T06:40:46.555Z,1010.42
2019-06-10T06:41:46.531Z,1010.44
2019-06-10T06:42:46.518Z,1010.46
2019-06-10T06:43:46.507Z,1010.49
2019-06-10T06:44:46.512Z,1010.45
2019-06-10T06:45:46.479Z,1010.42
2019-06-10T06:46:46.485Z,1010.36
2019-06-10T06:47:46.449Z,1010.32
2019-06-10T06:48:46.440Z,1010.25
2019-06-10T06:49:46.427Z,1010.22
2019-06-10T06:51:00.402Z,1010.21
2019-06-10T06:51:55.117Z,1010.15
2019-06-10T06:53:19.016Z,1010.05
2019-06-10T06:53:52.022Z,1009.98
2019-06-10T06:54:47.379Z,1009.96
2019-06-10T06:55:47.067Z,1009.86
2019-06-10T06:56:46.369Z,1009.83
2019-06-10T06:57:46.343Z,1009.81
2019-06-10T06:58:46.335Z,1009.83
2019-06-10T06:59:46.322Z,1009.79
2019-06-10T07:01:00.536Z,1009.76
2019-06-10T07:01:47.320Z,1009.71
2019-06-10T07:02:46.288Z,1009.73
2019-06-10T07:03:46.275Z,1009.71
2019-06-10T07:04:46.263Z,1009.75
2019-06-10T07:05:46.256Z,1009.84
2019-06-10T07:06:46.247Z,1009.82
2019-06-10T07:07:46.239Z,1009.85
2019-06-10T07:09:00.337Z,1009.84
2019-06-10T07:09:47.212Z,1009.90
2019-06-10T07:10:46.207Z,1009.91
2019-06-10T07:11:46.221Z,1009.91
2019-06-10T07:12:46.177Z,1009.92
2019-06-10T07:13:46.189Z,1009.87
2019-06-10T07:14:46.178Z,1009.89
2019-06-10T07:15:47.318Z,1009.88
2019-06-10T07:16:46.821Z,1009.86
2019-06-10T07:17:46.128Z,1009.85
2019-06-10T07:18:50.296Z,1009.84
2019-06-10T07:19:46.108Z,1009.87
2019-06-10T07:20:46.107Z,1009.90
2019-06-10T07:22:05.413Z,1009.86
2019-06-10T07:22:47.065Z,1009.86
2019-06-10T07:23:47.130Z,1009.88
2019-06-10T07:24:47.651Z,1009.93
2019-06-10T07:25:47.469Z,1009.89
2019-06-10T07:26:54.079Z,1009.87
2019-06-10T07:27:47.158Z,1009.89
2019-06-10T07:28:47.541Z,1009.83
2019-06-10T07:29:47.337Z,1009.77
2019-06-10T07:30:51.208Z,1009.75
2019-06-10T07:31:50.310Z,1009.77
2019-06-10T07:32:47.513Z,1009.86
2019-06-10T07:33:47.439Z,1009.82
2019-06-10T07:34:46.988Z,1009.87
2019-06-10T07:35:45.926Z,1009.79
2019-06-10T07:36:53.609Z,1009.77
2019-06-10T07:37:46.199Z,1009.76
2019-06-10T07:38:49.083Z,1009.78
2019-06-10T07:39:45.882Z,1009.81
2019-06-10T07:40:55.153Z,1009.83
2019-06-10T07:41:47.953Z,1009.82
2019-06-10T07:42:45.880Z,1009.79
2019-06-10T07:43:49.561Z,1009.84
2019-06-10T07:44:45.820Z,1009.91
2019-06-10T07:45:47.979Z,1009.90
2019-06-10T07:46:45.817Z,1009.87
2019-06-10T07:47:45.850Z,1009.90
2019-06-10T07:48:48.158Z,1009.88
2019-06-10T07:49:45.774Z,1009.82
2019-06-10T07:50:45.942Z,1009.81
2019-06-10T07:51:46.467Z,1009.81
2019-06-10T07:52:46.821Z,1009.81
2019-06-10T07:53:46.838Z,1009.82
2019-06-10T07:54:45.714Z,1009.83
2019-06-10T07:55:46.630Z,1009.84
2019-06-10T07:56:50.179Z,1009.83
2019-06-10T07:57:45.777Z,1009.88
2019-06-10T07:58:47.664Z,1009.82
2019-06-10T07:59:46.012Z,1009.86
2019-06-10T08:00:48.196Z,1009.86
2019-06-10T08:01:55.117Z,1009.86
2019-06-10T08:02:46.103Z,1009.88
2019-06-10T08:03:46.668Z,1009.89
2019-06-10T08:04:46.042Z,1009.86
2019-06-10T08:05:46.662Z,1009.92
2019-06-10T08:06:45.922Z,1009.91
2019-06-10T08:07:47.566Z,1009.94
2019-06-10T08:08:45.589Z,1009.92
2019-06-10T08:09:45.867Z,1009.94
2019-06-10T08:10:46.322Z,1009.97
2019-06-10T08:11:48.285Z,1009.89
2019-06-10T08:12:46.970Z,1009.91
2019-06-10T08:13:46.347Z,1009.86
2019-06-10T08:14:45.851Z,1009.88
2019-06-10T08:15:46.155Z,1009.86
2019-06-10T08:16:46.800Z,1009.77
2019-06-10T08:17:45.803Z,1009.77
2019-06-10T08:19:11.062Z,1009.77
2019-06-10T08:19:50.580Z,1009.76
2019-06-10T08:20:47.643Z,1009.77
2019-06-10T08:21:48.883Z,1009.76
2019-06-10T08:22:54.050Z,1009.70
2019-06-10T08:23:47.454Z,1009.76
2019-06-10T08:24:45.486Z,1009.75
2019-06-10T08:25:51.049Z,1009.71
2019-06-10T08:26:47.679Z,1009.77
2019-06-10T08:27:47.424Z,1009.72
2019-06-10T08:28:46.592Z,1009.74
2019-06-10T08:29:48.060Z,1009.75
2019-06-10T08:30:46.119Z,1009.76
2019-06-10T08:31:48.410Z,1009.73
2019-06-10T08:32:47.153Z,1009.71
2019-06-10T08:33:47.085Z,1009.75
2019-06-10T08:34:47.925Z,1009.72
2019-06-10T08:35:55.806Z,1009.66
2019-06-10T08:36:50.085Z,1009.66
2019-06-10T08:37:46.312Z,1009.64
2019-06-10T08:38:48.296Z,1009.67
2019-06-10T08:39:46.291Z,1009.66
2019-06-10T08:40:47.952Z,1009.67
2019-06-10T08:41:48.634Z,1009.63
2019-06-10T08:42:47.458Z,1009.63
2019-06-10T08:43:47.125Z,1009.67
2019-06-10T08:44:47.237Z,1009.68
2019-06-10T08:45:47.093Z,1009.64
2019-06-10T08:46:46.869Z,1009.64
2019-06-10T08:47:47.061Z,1009.63
2019-06-10T08:48:47.772Z,1009.63
2019-06-10T08:49:46.287Z,1009.60
2019-06-10T08:50:48.264Z,1009.62
2019-06-10T08:51:48.317Z,1009.63
2019-06-10T08:53:03.326Z,1009.64
2019-06-10T08:53:48.320Z,1009.68
2019-06-10T08:54:47.983Z,1009.63
2019-06-10T08:55:47.799Z,1009.58
2019-06-10T08:56:47.628Z,1009.62
2019-06-10T08:57:48.785Z,1009.57
2019-06-10T08:58:48.613Z,1009.55
2019-06-10T08:59:47.667Z,1009.57
2019-06-10T09:00:47.813Z,1009.55
2019-06-10T09:01:46.851Z,1009.58
2019-06-10T09:02:49.894Z,1009.59
2019-06-10T09:03:48.582Z,1009.64
2019-06-10T09:04:47.605Z,1009.65
2019-06-10T09:05:49.044Z,1009.66
2019-06-10T09:06:47.977Z,1009.64
2019-06-10T09:07:49.546Z,1009.61
2019-06-10T09:08:49.523Z,1009.61
2019-06-10T09:09:49.156Z,1009.64
2019-06-10T09:10:49.125Z,1009.64
2019-06-10T09:11:47.909Z,1009.66
2019-06-10T09:12:49.223Z,1009.65
2019-06-10T09:13:48.051Z,1009.69
2019-06-10T09:14:46.786Z,1009.63
2019-06-10T09:15:55.097Z,1009.61
2019-06-10T09:16:47.651Z,1009.61
2019-06-10T09:17:47.914Z,1009.56
2019-06-10T09:18:49.279Z,1009.60
2019-06-10T09:19:48.789Z,1009.58
2019-06-10T09:20:49.000Z,1009.61
2019-06-10T09:21:49.755Z,1009.60
2019-06-10T09:22:54.368Z,1009.60
2019-06-10T09:23:49.558Z,1009.60
2019-06-10T09:24:49.390Z,1009.58
2019-06-10T09:25:48.989Z,1009.60
2019-06-10T09:26:48.634Z,1009.55
2019-06-10T09:27:47.972Z,1009.59
2019-06-10T09:28:49.113Z,1009.52
2019-06-10T09:29:49.114Z,1009.53
2019-06-10T09:30:50.458Z,1009.50
2019-06-10T09:31:48.835Z,1009.54
2019-06-10T09:32:48.518Z,1009.57
2019-06-10T09:33:50.336Z,1009.54
2019-06-10T09:34:49.711Z,1009.55
2019-06-10T09:35:48.996Z,1009.55
2019-06-10T09:36:49.124Z,1009.52
2019-06-10T09:37:48.409Z,1009.50
2019-06-10T09:38:48.464Z,1009.42
2019-06-10T09:39:51.827Z,1009.42
2019-06-10T09:40:49.500Z,1009.39
2019-06-10T09:41:55.414Z,1009.36
2019-06-10T09:42:48.094Z,1009.35
2019-06-10T09:43:50.324Z,1009.34
2019-06-10T09:44:48.662Z,1009.34
2019-06-10T09:45:46.040Z,1009.33
2019-06-10T09:46:47.238Z,1009.36
2019-06-10T09:47:47.152Z,1009.37
2019-06-10T09:48:49.669Z,1009.38
2019-06-10T09:49:47.551Z,1009.36
2019-06-10T09:50:49.025Z,1009.44
2019-06-10T09:51:48.998Z,1009.41
2019-06-10T09:52:48.429Z,1009.34
2019-06-10T09:53:52.450Z,1009.43
2019-06-10T09:54:50.031Z,1009.44
2019-06-10T09:55:49.125Z,1009.61
2019-06-10T09:56:47.214Z,1009.68
2019-06-10T09:57:46.949Z,1009.65
2019-06-10T09:58:47.507Z,1009.66
2019-06-10T09:59:47.754Z,1009.74
2019-06-10T10:00:48.835Z,1009.64
2019-06-10T10:01:50.244Z,1009.67
2019-06-10T10:02:48.778Z,1009.59
2019-06-10T10:03:49.305Z,1009.61
2019-06-10T10:04:50.529Z,1009.65
2019-06-10T10:05:55.974Z,1009.69
2019-06-10T10:06:48.930Z,1009.73
2019-06-10T10:07:48.346Z,1009.82
2019-06-10T10:08:49.335Z,1009.92
2019-06-10T10:09:48.483Z,1009.90
2019-06-10T10:10:49.423Z,1009.85
2019-06-10T10:11:47.081Z,1009.94
2019-06-10T10:12:46.304Z,1010.00
2019-06-10T10:13:47.424Z,1010.03
2019-06-10T10:14:48.116Z,1010.07
2019-06-10T10:15:44.197Z,1010.12
2019-06-10T10:16:49.384Z,1010.12
2019-06-10T10:17:47.790Z,1010.18
2019-06-10T10:18:47.283Z,1010.12
2019-06-10T10:19:46.847Z,1009.99
2019-06-10T10:20:47.728Z,1010.10
2019-06-10T10:21:47.763Z,1009.94
2019-06-10T10:22:46.080Z,1009.92
2019-06-10T10:23:54.903Z,1009.81
2019-06-10T10:24:46.227Z,1009.58
2019-06-10T10:25:46.266Z,1009.58
2019-06-10T10:26:47.169Z,1009.61
2019-06-10T10:27:48.330Z,1009.86
2019-06-10T10:28:48.028Z,1009.54
2019-06-10T10:29:46.885Z,1009.53
2019-06-10T10:30:46.033Z,1009.53
2019-06-10T10:31:47.485Z,1009.73
2019-06-10T10:32:47.648Z,1009.72
2019-06-10T10:33:44.322Z,1009.53
2019-06-10T10:34:47.007Z,1009.62
2019-06-10T10:35:46.074Z,1009.71
2019-06-10T10:36:46.433Z,1009.66
2019-06-10T10:37:44.583Z,1009.56
2019-06-10T10:38:44.763Z,1009.62
2019-06-10T10:39:45.151Z,1009.57
2019-06-10T10:40:47.076Z,1009.58
2019-06-10T10:41:45.170Z,1009.53
2019-06-10T10:42:49.819Z,1009.53
2019-06-10T10:43:47.063Z,1009.53
2019-06-10T10:44:46.630Z,1009.47
2019-06-10T10:45:47.448Z,1009.44
2019-06-10T10:46:45.460Z,1009.39
2019-06-10T10:47:44.992Z,1009.40
2019-06-10T10:48:44.990Z,1009.35
2019-06-10T10:49:44.997Z,1009.30
2019-06-10T10:50:45.507Z,1009.29
2019-06-10T10:51:44.891Z,1009.33
2019-06-10T10:52:45.066Z,1009.29
2019-06-10T10:53:48.442Z,1009.27
2019-06-10T10:54:46.484Z,1009.22
2019-06-10T10:55:45.181Z,1009.24
2019-06-10T10:56:46.197Z,1009.26
2019-06-10T10:57:43.769Z,1009.24
2019-06-10T10:58:46.671Z,1009.20
2019-06-10T10:59:45.104Z,1009.19
2019-06-10T11:00:45.403Z,1009.28
2019-06-10T11:01:44.122Z,1009.22
2019-06-10T11:02:44.965Z,1009.28
2019-06-10T11:03:45.645Z,1009.28
2019-06-10T11:04:44.297Z,1009.28
2019-06-10T11:05:46.219Z,1009.27
2019-06-10T11:06:44.554Z,1009.23
2019-06-10T11:07:44.504Z,1009.22
2019-06-10T11:08:45.273Z,1009.28
2019-06-10T11:09:44.841Z,1009.27
2019-06-10T11:10:45.696Z,1009.27
2019-06-10T11:11:44.555Z,1009.26
2019-06-10T11:12:44.907Z,1009.27
2019-06-10T11:13:45.165Z,1009.30
2019-06-10T11:14:44.697Z,1009.28
2019-06-10T11:15:45.633Z,1009.29
2019-06-10T11:16:45.151Z,1009.34
2019-06-10T11:17:43.572Z,1009.33
2019-06-10T11:18:43.551Z,1009.31
2019-06-10T11:19:43.540Z,1009.29
2019-06-10T11:20:43.532Z,1009.25
2019-06-10T11:21:43.523Z,1009.22
2019-06-10T11:22:43.508Z,1009.22
2019-06-10T11:23:43.898Z,1009.19
2019-06-10T11:24:44.929Z,1009.19
2019-06-10T11:25:43.478Z,1009.21
2019-06-10T11:26:43.503Z,1009.21
2019-06-10T11:27:43.452Z,1009.20
2019-06-10T11:28:43.446Z,1009.20
2019-06-10T11:29:43.431Z,1009.16
2019-06-10T11:30:43.431Z,1009.16
2019-06-10T11:31:43.426Z,1009.13
2019-06-10T11:32:43.427Z,1009.15
2019-06-10T11:33:43.836Z,1009.09
2019-06-10T11:34:43.380Z,1009.10
2019-06-10T11:35:43.367Z,1009.05
2019-06-10T11:36:43.350Z,1009.05
2019-06-10T11:37:43.374Z,1009.01
2019-06-10T11:38:43.335Z,1009.07
2019-06-10T11:39:43.317Z,1009.08
2019-06-10T11:40:43.315Z,1009.10
2019-06-10T11:41:43.790Z,1009.20
2019-06-10T11:42:43.686Z,1009.28
2019-06-10T11:43:43.371Z,1009.31
2019-06-10T11:44:43.269Z,1009.30
2019-06-10T11:45:48.297Z,1009.27
2019-06-10T11:46:44.249Z,1009.30
2019-06-10T11:47:43.236Z,1009.26
2019-06-10T11:48:44.335Z,1009.27
2019-06-10T11:49:43.575Z,1009.27
2019-06-10T11:50:43.207Z,1009.28
2019-06-10T11:51:43.190Z,1009.27
2019-06-10T11:52:43.374Z,1009.21
2019-06-10T11:53:44.021Z,1009.15
2019-06-10T11:54:55.772Z,1009.05
2019-06-10T11:55:44.150Z,1009.07
2019-06-10T11:56:43.146Z,1009.06
2019-06-10T11:57:43.134Z,1009.00
2019-06-10T11:58:43.598Z,1008.98
2019-06-10T11:59:43.612Z,1008.94
2019-06-10T12:00:43.101Z,1008.91
2019-06-10T12:01:43.088Z,1008.87
2019-06-10T12:02:43.087Z,1008.86
2019-06-10T12:03:43.441Z,1008.78
2019-06-10T12:04:43.110Z,1008.85
2019-06-10T12:05:43.047Z,1008.83